Bessemer Airport


Codes: KEKY/
Name: Bessemer Airport
City: Bessemer
Country: United States
Elevation: 700 ft.
Wikipedia:

Photos at Bessemer Airport


   Photos courtesy of SpottingLog. You can add your own sightings and photos by signing up for a free trial today.



No photos found.

Weather at Bessemer Airport


Time (UTC)DescriptionTempratureWindCloud coverageVisibilityPressureHumidity
16-Jun-2024 12:00Clear Sky23°C4 mph, SE8%10000m1014hPa92%
16-Jun-2024 15:00Clear Sky28°C4 mph, SE3%10000m1016hPa66%
16-Jun-2024 18:00Clear Sky35°C7 mph, SE5%10000m1016hPa34%
16-Jun-2024 21:00Scattered Clouds33°C7 mph, S46%10000m1014hPa40%
17-Jun-2024 00:00Broken Clouds29°C9 mph, S73%10000m1015hPa54%
17-Jun-2024 03:00Overcast Clouds24°C2 mph, SE97%10000m1016hPa74%
17-Jun-2024 06:00Overcast Clouds23°C4 mph, S99%10000m1017hPa88%
17-Jun-2024 09:00Overcast Clouds22°C4 mph, E99%10000m1017hPa90%
17-Jun-2024 12:00Overcast Clouds23°C4 mph, SE100%10000m1018hPa84%
17-Jun-2024 15:00Overcast Clouds29°C9 mph, SE98%10000m1018hPa57%
17-Jun-2024 18:00Light Rain31°C9 mph, S80%10000m1018hPa52%
17-Jun-2024 21:00Overcast Clouds33°C11 mph, SE98%10000m1015hPa35%
18-Jun-2024 00:00Overcast Clouds29°C9 mph, SE99%10000m1016hPa55%
18-Jun-2024 03:00Overcast Clouds25°C4 mph, E100%10000m1018hPa68%
18-Jun-2024 06:00Overcast Clouds24°C4 mph, SE100%10000m1017hPa73%
18-Jun-2024 09:00Overcast Clouds24°C9 mph, SE100%10000m1017hPa60%
18-Jun-2024 12:00Overcast Clouds22°C9 mph, E100%10000m1018hPa69%
18-Jun-2024 15:00Overcast Clouds26°C11 mph, SE100%10000m1019hPa61%
18-Jun-2024 18:00Overcast Clouds31°C11 mph, SE100%10000m1017hPa36%
18-Jun-2024 21:00Overcast Clouds32°C13 mph, SE99%10000m1016hPa43%
19-Jun-2024 00:00Overcast Clouds26°C4 mph, SE100%10000m1017hPa70%
19-Jun-2024 03:00Overcast Clouds24°C4 mph, E100%10000m1018hPa76%
19-Jun-2024 06:00Overcast Clouds25°C9 mph, E100%10000m1017hPa54%
19-Jun-2024 09:00Overcast Clouds23°C9 mph, SE100%10000m1019hPa74%
19-Jun-2024 12:00Overcast Clouds23°C9 mph, E100%10000m1020hPa81%
19-Jun-2024 15:00Overcast Clouds26°C11 mph, E100%10000m1021hPa53%
19-Jun-2024 18:00Overcast Clouds29°C13 mph, E100%10000m1021hPa40%
19-Jun-2024 21:00Overcast Clouds31°C11 mph, E100%10000m1019hPa36%
20-Jun-2024 00:00Overcast Clouds27°C7 mph, SE100%10000m1020hPa58%
20-Jun-2024 03:00Overcast Clouds22°C2 mph, E100%10000m1020hPa64%
20-Jun-2024 06:00Overcast Clouds21°C4 mph, E91%10000m1020hPa70%
20-Jun-2024 09:00Overcast Clouds21°C7 mph, E100%10000m1021hPa78%
20-Jun-2024 12:00Overcast Clouds21°C7 mph, E99%10000m1023hPa76%
20-Jun-2024 15:00Overcast Clouds27°C11 mph, E94%10000m1023hPa51%
20-Jun-2024 18:00Scattered Clouds31°C11 mph, E49%10000m1021hPa32%
20-Jun-2024 21:00Clear Sky33°C11 mph, E0%10000m1019hPa25%
21-Jun-2024 00:00Clear Sky28°C7 mph, E0%10000m1019hPa49%
21-Jun-2024 03:00Broken Clouds23°C4 mph, E60%10000m1020hPa71%
21-Jun-2024 06:00Broken Clouds23°C7 mph, NE62%10000m1019hPa68%
21-Jun-2024 09:00Few Clouds24°C11 mph, E16%10000m1018hPa78%